sensor_id;sensor_type;location;lat;lon;timestamp;P1;durP1;ratioP1;P2;durP2;ratioP2
28836;SDS011;50669;50.982;11.022;2023-02-22T00:00:53;10.23;;;5.80;;
28836;SDS011;50669;50.982;11.022;2023-02-22T00:03:24;11.20;;;5.57;;
28836;SDS011;50669;50.982;11.022;2023-02-22T00:08:27;10.30;;;6.53;;
28836;SDS011;50669;50.982;11.022;2023-02-22T00:11:01;12.23;;;6.22;;
28836;SDS011;50669;50.982;11.022;2023-02-22T00:13:29;10.57;;;6.38;;
28836;SDS011;50669;50.982;11.022;2023-02-22T00:15:55;10.35;;;5.40;;
28836;SDS011;50669;50.982;11.022;2023-02-22T00:18:21;11.90;;;5.97;;
28836;SDS011;50669;50.982;11.022;2023-02-22T00:20:51;9.45;;;6.03;;
28836;SDS011;50669;50.982;11.022;2023-02-22T00:23:21;9.70;;;5.57;;
28836;SDS011;50669;50.982;11.022;2023-02-22T00:25:51;12.35;;;6.43;;
28836;SDS011;50669;50.982;11.022;2023-02-22T00:28:17;11.60;;;6.15;;
28836;SDS011;50669;50.982;11.022;2023-02-22T00:30:43;12.43;;;6.10;;
28836;SDS011;50669;50.982;11.022;2023-02-22T00:33:12;10.52;;;5.60;;
28836;SDS011;50669;50.982;11.022;2023-02-22T00:35:42;9.85;;;5.53;;
28836;SDS011;50669;50.982;11.022;2023-02-22T00:38:12;11.82;;;6.78;;
28836;SDS011;50669;50.982;11.022;2023-02-22T00:40:40;11.13;;;6.00;;
28836;SDS011;50669;50.982;11.022;2023-02-22T00:43:09;14.43;;;7.20;;
28836;SDS011;50669;50.982;11.022;2023-02-22T00:45:35;11.80;;;6.05;;
28836;SDS011;50669;50.982;11.022;2023-02-22T00:48:04;12.13;;;6.55;;
28836;SDS011;50669;50.982;11.022;2023-02-22T00:50:31;13.40;;;7.10;;
28836;SDS011;50669;50.982;11.022;2023-02-22T00:52:58;12.70;;;6.20;;
28836;SDS011;50669;50.982;11.022;2023-02-22T00:55:25;12.07;;;6.38;;
28836;SDS011;50669;50.982;11.022;2023-02-22T00:57:53;11.95;;;6.60;;
28836;SDS011;50669;50.982;11.022;2023-02-22T01:02:49;12.45;;;6.65;;
28836;SDS011;50669;50.982;11.022;2023-02-22T01:05:16;13.65;;;6.88;;
28836;SDS011;50669;50.982;11.022;2023-02-22T01:07:45;13.52;;;6.60;;
28836;SDS011;50669;50.982;11.022;2023-02-22T01:10:14;11.70;;;6.43;;
28836;SDS011;50669;50.982;11.022;2023-02-22T01:12:45;12.68;;;6.88;;
28836;SDS011;50669;50.982;11.022;2023-02-22T01:15:12;9.05;;;5.72;;
28836;SDS011;50669;50.982;11.022;2023-02-22T01:17:38;12.23;;;6.28;;
28836;SDS011;50669;50.982;11.022;2023-02-22T01:20:06;11.57;;;5.90;;
28836;SDS011;50669;50.982;11.022;2023-02-22T01:22:36;12.80;;;6.40;;
28836;SDS011;50669;50.982;11.022;2023-02-22T01:25:06;15.27;;;6.97;;
28836;SDS011;50669;50.982;11.022;2023-02-22T01:27:33;9.20;;;5.03;;
28836;SDS011;50669;50.982;11.022;2023-02-22T01:29:59;12.30;;;6.10;;
28836;SDS011;50669;50.982;11.022;2023-02-22T01:32:26;8.95;;;5.45;;
28836;SDS011;50669;50.982;11.022;2023-02-22T01:34:52;11.57;;;5.68;;
28836;SDS011;50669;50.982;11.022;2023-02-22T01:37:18;10.05;;;5.43;;
28836;SDS011;50669;50.982;11.022;2023-02-22T01:39:43;11.45;;;5.75;;
28836;SDS011;50669;50.982;11.022;2023-02-22T01:42:09;9.90;;;5.70;;
28836;SDS011;50669;50.982;11.022;2023-02-22T01:44:36;12.73;;;5.55;;
28836;SDS011;50669;50.982;11.022;2023-02-22T01:47:06;13.00;;;7.32;;
28836;SDS011;50669;50.982;11.022;2023-02-22T01:49:38;9.98;;;5.57;;
28836;SDS011;50669;50.982;11.022;2023-02-22T01:52:13;12.80;;;6.15;;
28836;SDS011;50669;50.982;11.022;2023-02-22T01:54:47;19.40;;;7.20;;
28836;SDS011;50669;50.982;11.022;2023-02-22T01:57:27;12.20;;;6.05;;
28836;SDS011;50669;50.982;11.022;2023-02-22T02:00:04;15.32;;;6.53;;
28836;SDS011;50669;50.982;11.022;2023-02-22T02:02:36;12.35;;;6.20;;
28836;SDS011;50669;50.982;11.022;2023-02-22T02:05:05;15.45;;;6.53;;
28836;SDS011;50669;50.982;11.022;2023-02-22T02:07:32;15.07;;;6.32;;
28836;SDS011;50669;50.982;11.022;2023-02-22T02:10:00;15.05;;;6.72;;
28836;SDS011;50669;50.982;11.022;2023-02-22T02:12:33;10.27;;;5.30;;
28836;SDS011;50669;50.982;11.022;2023-02-22T02:15:16;12.32;;;6.13;;
28836;SDS011;50669;50.982;11.022;2023-02-22T02:17:42;12.10;;;5.72;;
28836;SDS011;50669;50.982;11.022;2023-02-22T02:22:55;12.27;;;6.82;;
28836;SDS011;50669;50.982;11.022;2023-02-22T02:42:12;13.30;;;6.13;;
28836;SDS011;50669;50.982;11.022;2023-02-22T02:44:47;9.60;;;5.50;;
28836;SDS011;50669;50.982;11.022;2023-02-22T02:47:26;13.20;;;6.80;;
28836;SDS011;50669;50.982;11.022;2023-02-22T02:49:57;12.30;;;6.13;;
28836;SDS011;50669;50.982;11.022;2023-02-22T02:52:30;14.20;;;6.22;;
28836;SDS011;50669;50.982;11.022;2023-02-22T02:54:58;12.98;;;6.80;;
28836;SDS011;50669;50.982;11.022;2023-02-22T02:57:25;15.73;;;6.15;;
28836;SDS011;50669;50.982;11.022;2023-02-22T02:59:54;11.60;;;5.95;;
28836;SDS011;50669;50.982;11.022;2023-02-22T03:13:18;12.18;;;6.22;;
28836;SDS011;50669;50.982;11.022;2023-02-22T03:18:43;15.52;;;7.15;;
28836;SDS011;50669;50.982;11.022;2023-02-22T03:23:59;14.43;;;6.70;;
28836;SDS011;50669;50.982;11.022;2023-02-22T03:27:06;11.13;;;6.27;;
28836;SDS011;50669;50.982;11.022;2023-02-22T03:29:38;12.68;;;6.70;;
28836;SDS011;50669;50.982;11.022;2023-02-22T03:32:08;13.38;;;6.75;;
28836;SDS011;50669;50.982;11.022;2023-02-22T03:35:13;12.60;;;6.47;;
28836;SDS011;50669;50.982;11.022;2023-02-22T03:37:33;14.57;;;6.78;;
28836;SDS011;50669;50.982;11.022;2023-02-22T03:40:03;11.45;;;5.90;;
28836;SDS011;50669;50.982;11.022;2023-02-22T03:42:39;16.40;;;6.75;;
28836;SDS011;50669;50.982;11.022;2023-02-22T03:47:40;13.68;;;6.15;;
28836;SDS011;50669;50.982;11.022;2023-02-22T03:50:10;12.15;;;5.57;;
28836;SDS011;50669;50.982;11.022;2023-02-22T03:52:41;13.23;;;6.35;;
28836;SDS011;50669;50.982;11.022;2023-02-22T03:55:10;20.20;;;9.60;;
28836;SDS011;50669;50.982;11.022;2023-02-22T03:57:42;13.07;;;6.07;;
28836;SDS011;50669;50.982;11.022;2023-02-22T04:00:13;13.63;;;6.30;;
28836;SDS011;50669;50.982;11.022;2023-02-22T04:02:44;12.00;;;6.07;;
28836;SDS011;50669;50.982;11.022;2023-02-22T04:05:10;14.25;;;6.70;;
28836;SDS011;50669;50.982;11.022;2023-02-22T04:07:38;13.05;;;6.05;;
28836;SDS011;50669;50.982;11.022;2023-02-22T04:10:05;13.30;;;6.82;;
28836;SDS011;50669;50.982;11.022;2023-02-22T04:12:33;19.27;;;9.82;;
28836;SDS011;50669;50.982;11.022;2023-02-22T04:15:02;14.35;;;6.80;;
28836;SDS011;50669;50.982;11.022;2023-02-22T04:17:30;14.75;;;6.25;;
28836;SDS011;50669;50.982;11.022;2023-02-22T04:19:55;13.55;;;6.47;;
28836;SDS011;50669;50.982;11.022;2023-02-22T04:22:23;13.95;;;6.78;;
28836;SDS011;50669;50.982;11.022;2023-02-22T04:24:52;17.38;;;7.28;;
28836;SDS011;50669;50.982;11.022;2023-02-22T04:27:20;14.77;;;6.13;;
28836;SDS011;50669;50.982;11.022;2023-02-22T04:29:47;12.90;;;6.20;;
28836;SDS011;50669;50.982;11.022;2023-02-22T04:32:15;13.82;;;6.57;;
28836;SDS011;50669;50.982;11.022;2023-02-22T04:34:41;14.05;;;7.13;;
28836;SDS011;50669;50.982;11.022;2023-02-22T04:37:09;11.88;;;6.50;;
28836;SDS011;50669;50.982;11.022;2023-02-22T04:39:35;15.55;;;6.75;;
28836;SDS011;50669;50.982;11.022;2023-02-22T04:42:02;15.02;;;6.85;;
28836;SDS011;50669;50.982;11.022;2023-02-22T04:44:30;12.57;;;6.30;;
28836;SDS011;50669;50.982;11.022;2023-02-22T04:46:56;16.73;;;7.30;;
28836;SDS011;50669;50.982;11.022;2023-02-22T04:49:22;13.38;;;6.97;;
28836;SDS011;50669;50.982;11.022;2023-02-22T04:51:48;15.57;;;6.60;;
28836;SDS011;50669;50.982;11.022;2023-02-22T04:54:13;14.38;;;6.85;;
28836;SDS011;50669;50.982;11.022;2023-02-22T04:56:41;15.43;;;6.57;;
28836;SDS011;50669;50.982;11.022;2023-02-22T04:59:09;15.93;;;6.47;;
28836;SDS011;50669;50.982;11.022;2023-02-22T05:01:40;16.40;;;7.47;;
28836;SDS011;50669;50.982;11.022;2023-02-22T05:04:06;14.55;;;6.53;;
28836;SDS011;50669;50.982;11.022;2023-02-22T05:06:32;17.15;;;7.13;;
28836;SDS011;50669;50.982;11.022;2023-02-22T05:08:58;17.75;;;7.57;;
28836;SDS011;50669;50.982;11.022;2023-02-22T05:11:26;12.30;;;5.45;;
28836;SDS011;50669;50.982;11.022;2023-02-22T05:13:54;16.40;;;7.00;;
28836;SDS011;50669;50.982;11.022;2023-02-22T05:16:20;15.80;;;7.03;;
28836;SDS011;50669;50.982;11.022;2023-02-22T05:18:45;14.30;;;5.90;;
28836;SDS011;50669;50.982;11.022;2023-02-22T05:21:11;13.25;;;6.00;;
28836;SDS011;50669;50.982;11.022;2023-02-22T05:23:37;14.95;;;7.20;;
28836;SDS011;50669;50.982;11.022;2023-02-22T05:26:03;14.40;;;7.15;;
28836;SDS011;50669;50.982;11.022;2023-02-22T05:28:30;14.85;;;7.22;;
28836;SDS011;50669;50.982;11.022;2023-02-22T05:30:56;13.23;;;6.57;;
28836;SDS011;50669;50.982;11.022;2023-02-22T05:33:22;14.68;;;6.68;;
28836;SDS011;50669;50.982;11.022;2023-02-22T05:35:50;15.50;;;7.30;;
28836;SDS011;50669;50.982;11.022;2023-02-22T05:38:20;16.50;;;7.85;;
28836;SDS011;50669;50.982;11.022;2023-02-22T05:40:47;12.70;;;6.63;;
28836;SDS011;50669;50.982;11.022;2023-02-22T05:43:13;13.52;;;7.10;;
28836;SDS011;50669;50.982;11.022;2023-02-22T05:45:39;24.73;;;9.20;;
28836;SDS011;50669;50.982;11.022;2023-02-22T05:48:06;29.05;;;9.05;;
28836;SDS011;50669;50.982;11.022;2023-02-22T05:50:31;20.02;;;8.70;;
28836;SDS011;50669;50.982;11.022;2023-02-22T05:52:57;21.13;;;8.38;;
28836;SDS011;50669;50.982;11.022;2023-02-22T05:55:24;23.23;;;8.55;;
28836;SDS011;50669;50.982;11.022;2023-02-22T05:57:50;19.67;;;8.25;;
28836;SDS011;50669;50.982;11.022;2023-02-22T06:00:24;16.92;;;7.70;;
28836;SDS011;50669;50.982;11.022;2023-02-22T06:02:52;25.98;;;7.97;;
28836;SDS011;50669;50.982;11.022;2023-02-22T06:05:22;25.67;;;9.45;;
28836;SDS011;50669;50.982;11.022;2023-02-22T06:07:48;37.10;;;9.27;;
28836;SDS011;50669;50.982;11.022;2023-02-22T06:10:13;17.98;;;8.57;;
28836;SDS011;50669;50.982;11.022;2023-02-22T06:12:39;16.42;;;7.72;;
28836;SDS011;50669;50.982;11.022;2023-02-22T06:15:05;18.55;;;8.32;;
28836;SDS011;50669;50.982;11.022;2023-02-22T06:17:31;24.50;;;9.43;;
28836;SDS011;50669;50.982;11.022;2023-02-22T06:20:02;19.55;;;7.95;;
28836;SDS011;50669;50.982;11.022;2023-02-22T06:22:28;20.02;;;7.80;;
28836;SDS011;50669;50.982;11.022;2023-02-22T06:24:56;16.60;;;7.03;;
28836;SDS011;50669;50.982;11.022;2023-02-22T06:27:24;21.73;;;7.75;;
28836;SDS011;50669;50.982;11.022;2023-02-22T06:29:49;25.17;;;8.93;;
28836;SDS011;50669;50.982;11.022;2023-02-22T06:32:15;18.60;;;7.85;;
28836;SDS011;50669;50.982;11.022;2023-02-22T06:34:41;26.38;;;11.90;;
28836;SDS011;50669;50.982;11.022;2023-02-22T06:37:06;18.05;;;9.77;;
28836;SDS011;50669;50.982;11.022;2023-02-22T06:39:34;22.60;;;8.50;;
28836;SDS011;50669;50.982;11.022;2023-02-22T06:42:00;19.52;;;9.43;;
28836;SDS011;50669;50.982;11.022;2023-02-22T06:44:25;31.38;;;10.52;;
28836;SDS011;50669;50.982;11.022;2023-02-22T06:46:51;31.40;;;9.57;;
28836;SDS011;50669;50.982;11.022;2023-02-22T06:49:17;17.88;;;8.38;;
28836;SDS011;50669;50.982;11.022;2023-02-22T06:51:44;17.65;;;7.57;;
28836;SDS011;50669;50.982;11.022;2023-02-22T06:54:10;16.88;;;8.68;;
28836;SDS011;50669;50.982;11.022;2023-02-22T06:56:36;21.75;;;8.80;;
28836;SDS011;50669;50.982;11.022;2023-02-22T06:59:02;23.67;;;9.52;;
28836;SDS011;50669;50.982;11.022;2023-02-22T07:01:28;22.20;;;8.93;;
28836;SDS011;50669;50.982;11.022;2023-02-22T07:03:55;18.80;;;7.88;;
28836;SDS011;50669;50.982;11.022;2023-02-22T07:06:21;20.25;;;9.13;;
28836;SDS011;50669;50.982;11.022;2023-02-22T07:08:47;17.42;;;9.13;;
28836;SDS011;50669;50.982;11.022;2023-02-22T07:11:16;16.65;;;8.40;;
28836;SDS011;50669;50.982;11.022;2023-02-22T07:13:41;16.48;;;8.45;;
28836;SDS011;50669;50.982;11.022;2023-02-22T07:16:12;16.08;;;8.52;;
28836;SDS011;50669;50.982;11.022;2023-02-22T07:18:37;16.15;;;8.52;;
28836;SDS011;50669;50.982;11.022;2023-02-22T07:21:05;25.65;;;9.68;;
28836;SDS011;50669;50.982;11.022;2023-02-22T07:23:31;19.45;;;8.73;;
28836;SDS011;50669;50.982;11.022;2023-02-22T07:26:00;27.10;;;14.32;;
28836;SDS011;50669;50.982;11.022;2023-02-22T07:28:27;24.50;;;14.75;;
28836;SDS011;50669;50.982;11.022;2023-02-22T07:30:52;21.15;;;10.15;;
28836;SDS011;50669;50.982;11.022;2023-02-22T07:33:18;19.00;;;9.00;;
28836;SDS011;50669;50.982;11.022;2023-02-22T07:35:47;21.05;;;9.43;;
28836;SDS011;50669;50.982;11.022;2023-02-22T07:38:15;19.15;;;9.38;;
28836;SDS011;50669;50.982;11.022;2023-02-22T07:40:42;23.15;;;10.02;;
28836;SDS011;50669;50.982;11.022;2023-02-22T07:43:21;23.10;;;10.07;;
28836;SDS011;50669;50.982;11.022;2023-02-22T07:45:56;21.35;;;8.73;;
28836;SDS011;50669;50.982;11.022;2023-02-22T07:48:27;21.77;;;10.30;;
28836;SDS011;50669;50.982;11.022;2023-02-22T07:50:57;21.98;;;9.63;;
28836;SDS011;50669;50.982;11.022;2023-02-22T07:53:24;23.30;;;10.68;;
28836;SDS011;50669;50.982;11.022;2023-02-22T07:55:55;22.67;;;10.32;;
28836;SDS011;50669;50.982;11.022;2023-02-22T07:58:25;16.38;;;8.68;;
28836;SDS011;50669;50.982;11.022;2023-02-22T08:00:52;17.38;;;8.82;;
28836;SDS011;50669;50.982;11.022;2023-02-22T08:03:25;17.42;;;8.75;;
28836;SDS011;50669;50.982;11.022;2023-02-22T08:05:52;18.85;;;9.48;;
28836;SDS011;50669;50.982;11.022;2023-02-22T08:08:19;16.30;;;8.70;;
28836;SDS011;50669;50.982;11.022;2023-02-22T08:10:48;15.68;;;8.82;;
28836;SDS011;50669;50.982;11.022;2023-02-22T08:13:17;17.15;;;9.32;;
28836;SDS011;50669;50.982;11.022;2023-02-22T08:15:44;17.17;;;9.02;;
28836;SDS011;50669;50.982;11.022;2023-02-22T08:18:14;16.80;;;9.00;;
28836;SDS011;50669;50.982;11.022;2023-02-22T08:20:42;16.08;;;10.27;;
28836;SDS011;50669;50.982;11.022;2023-02-22T08:23:13;17.15;;;8.70;;
28836;SDS011;50669;50.982;11.022;2023-02-22T08:25:39;18.00;;;8.82;;
28836;SDS011;50669;50.982;11.022;2023-02-22T08:28:09;15.82;;;8.35;;
28836;SDS011;50669;50.982;11.022;2023-02-22T08:30:43;13.80;;;8.07;;
28836;SDS011;50669;50.982;11.022;2023-02-22T08:33:12;13.57;;;7.75;;
28836;SDS011;50669;50.982;11.022;2023-02-22T08:35:43;16.55;;;8.63;;
28836;SDS011;50669;50.982;11.022;2023-02-22T08:38:23;17.30;;;8.25;;
28836;SDS011;50669;50.982;11.022;2023-02-22T08:40:52;16.73;;;8.23;;
28836;SDS011;50669;50.982;11.022;2023-02-22T08:43:18;16.45;;;8.27;;
28836;SDS011;50669;50.982;11.022;2023-02-22T08:45:45;14.70;;;8.27;;
28836;SDS011;50669;50.982;11.022;2023-02-22T08:48:12;14.65;;;8.10;;
28836;SDS011;50669;50.982;11.022;2023-02-22T08:50:38;14.77;;;8.65;;
28836;SDS011;50669;50.982;11.022;2023-02-22T08:53:06;19.05;;;8.80;;
28836;SDS011;50669;50.982;11.022;2023-02-22T08:55:33;19.08;;;9.00;;
28836;SDS011;50669;50.982;11.022;2023-02-22T08:58:03;15.65;;;8.60;;
28836;SDS011;50669;50.982;11.022;2023-02-22T09:00:33;15.70;;;7.82;;
28836;SDS011;50669;50.982;11.022;2023-02-22T09:03:00;20.77;;;10.60;;
28836;SDS011;50669;50.982;11.022;2023-02-22T09:05:30;16.33;;;9.90;;
28836;SDS011;50669;50.982;11.022;2023-02-22T09:07:55;19.23;;;10.25;;
28836;SDS011;50669;50.982;11.022;2023-02-22T09:10:25;20.23;;;9.45;;
28836;SDS011;50669;50.982;11.022;2023-02-22T09:12:52;16.77;;;8.93;;
28836;SDS011;50669;50.982;11.022;2023-02-22T09:15:25;29.90;;;17.38;;
28836;SDS011;50669;50.982;11.022;2023-02-22T09:17:51;24.42;;;14.70;;
28836;SDS011;50669;50.982;11.022;2023-02-22T09:20:18;20.27;;;11.13;;
28836;SDS011;50669;50.982;11.022;2023-02-22T09:22:46;19.63;;;10.05;;
28836;SDS011;50669;50.982;11.022;2023-02-22T09:25:16;19.65;;;9.50;;
28836;SDS011;50669;50.982;11.022;2023-02-22T09:27:45;22.58;;;9.57;;
28836;SDS011;50669;50.982;11.022;2023-02-22T09:30:20;15.98;;;8.93;;
28836;SDS011;50669;50.982;11.022;2023-02-22T09:32:49;22.58;;;10.38;;
28836;SDS011;50669;50.982;11.022;2023-02-22T09:35:16;16.15;;;9.65;;
28836;SDS011;50669;50.982;11.022;2023-02-22T09:37:44;17.27;;;9.27;;
28836;SDS011;50669;50.982;11.022;2023-02-22T09:40:14;13.25;;;8.32;;
28836;SDS011;50669;50.982;11.022;2023-02-22T09:42:52;31.83;;;12.45;;
28836;SDS011;50669;50.982;11.022;2023-02-22T09:51:41;18.38;;;10.55;;
28836;SDS011;50669;50.982;11.022;2023-02-22T09:56:52;16.95;;;9.60;;
28836;SDS011;50669;50.982;11.022;2023-02-22T09:59:22;14.43;;;8.55;;
28836;SDS011;50669;50.982;11.022;2023-02-22T10:02:01;19.33;;;10.85;;
28836;SDS011;50669;50.982;11.022;2023-02-22T10:04:47;25.17;;;10.48;;
28836;SDS011;50669;50.982;11.022;2023-02-22T10:07:20;21.30;;;11.35;;
28836;SDS011;50669;50.982;11.022;2023-02-22T10:09:52;21.48;;;10.18;;
28836;SDS011;50669;50.982;11.022;2023-02-22T10:12:32;20.63;;;10.25;;
28836;SDS011;50669;50.982;11.022;2023-02-22T10:21:20;16.83;;;9.50;;
28836;SDS011;50669;50.982;11.022;2023-02-22T10:26:42;26.77;;;11.02;;
28836;SDS011;50669;50.982;11.022;2023-02-22T10:29:31;15.68;;;9.52;;
28836;SDS011;50669;50.982;11.022;2023-02-22T10:32:04;18.50;;;9.23;;
28836;SDS011;50669;50.982;11.022;2023-02-22T10:34:40;14.65;;;9.23;;
28836;SDS011;50669;50.982;11.022;2023-02-22T10:39:44;15.82;;;8.85;;
28836;SDS011;50669;50.982;11.022;2023-02-22T10:42:13;17.75;;;12.82;;
28836;SDS011;50669;50.982;11.022;2023-02-22T10:44:42;19.42;;;9.68;;
28836;SDS011;50669;50.982;11.022;2023-02-22T10:47:09;12.60;;;9.02;;
28836;SDS011;50669;50.982;11.022;2023-02-22T10:49:40;13.50;;;8.43;;
28836;SDS011;50669;50.982;11.022;2023-02-22T10:52:16;14.98;;;8.70;;
28836;SDS011;50669;50.982;11.022;2023-02-22T10:54:44;29.35;;;10.45;;
28836;SDS011;50669;50.982;11.022;2023-02-22T10:57:12;18.58;;;8.55;;
28836;SDS011;50669;50.982;11.022;2023-02-22T10:59:39;13.50;;;7.47;;
28836;SDS011;50669;50.982;11.022;2023-02-22T11:04:50;9.70;;;6.95;;
28836;SDS011;50669;50.982;11.022;2023-02-22T11:10:04;12.45;;;6.70;;
28836;SDS011;50669;50.982;11.022;2023-02-22T11:12:33;12.27;;;7.00;;
28836;SDS011;50669;50.982;11.022;2023-02-22T11:17:41;12.32;;;4.90;;
28836;SDS011;50669;50.982;11.022;2023-02-22T11:20:24;5.28;;;4.00;;
28836;SDS011;50669;50.982;11.022;2023-02-22T11:22:55;4.65;;;3.55;;
28836;SDS011;50669;50.982;11.022;2023-02-22T11:25:46;6.07;;;2.97;;
28836;SDS011;50669;50.982;11.022;2023-02-22T11:28:17;8.18;;;3.88;;
28836;SDS011;50669;50.982;11.022;2023-02-22T11:30:54;13.85;;;4.53;;
28836;SDS011;50669;50.982;11.022;2023-02-22T11:33:33;6.30;;;4.07;;
28836;SDS011;50669;50.982;11.022;2023-02-22T11:36:00;20.48;;;5.60;;
28836;SDS011;50669;50.982;11.022;2023-02-22T11:38:29;9.85;;;4.47;;
28836;SDS011;50669;50.982;11.022;2023-02-22T11:41:07;10.00;;;4.88;;
28836;SDS011;50669;50.982;11.022;2023-02-22T11:43:41;6.00;;;4.63;;
28836;SDS011;50669;50.982;11.022;2023-02-22T11:46:25;14.85;;;7.22;;
28836;SDS011;50669;50.982;11.022;2023-02-22T11:48:55;5.45;;;4.60;;
28836;SDS011;50669;50.982;11.022;2023-02-22T11:51:41;5.63;;;3.72;;
28836;SDS011;50669;50.982;11.022;2023-02-22T12:05:08;4.93;;;3.25;;
28836;SDS011;50669;50.982;11.022;2023-02-22T12:08:05;8.27;;;3.72;;
28836;SDS011;50669;50.982;11.022;2023-02-22T12:13:24;5.65;;;3.55;;
28836;SDS011;50669;50.982;11.022;2023-02-22T12:19:18;8.13;;;4.07;;
28836;SDS011;50669;50.982;11.022;2023-02-22T12:21:52;5.57;;;3.67;;
28836;SDS011;50669;50.982;11.022;2023-02-22T12:24:26;4.60;;;4.00;;
28836;SDS011;50669;50.982;11.022;2023-02-22T12:27:08;5.35;;;4.22;;
28836;SDS011;50669;50.982;11.022;2023-02-22T12:40:17;8.77;;;3.60;;
28836;SDS011;50669;50.982;11.022;2023-02-22T12:45:33;4.40;;;3.15;;
28836;SDS011;50669;50.982;11.022;2023-02-22T12:50:46;5.97;;;3.03;;
28836;SDS011;50669;50.982;11.022;2023-02-22T12:53:33;9.35;;;3.75;;
28836;SDS011;50669;50.982;11.022;2023-02-22T13:01:37;4.82;;;2.40;;
28836;SDS011;50669;50.982;11.022;2023-02-22T13:04:09;10.45;;;3.97;;
28836;SDS011;50669;50.982;11.022;2023-02-22T13:12:23;7.13;;;3.20;;
28836;SDS011;50669;50.982;11.022;2023-02-22T13:15:06;5.93;;;4.00;;
28836;SDS011;50669;50.982;11.022;2023-02-22T13:23:23;7.28;;;3.00;;
28836;SDS011;50669;50.982;11.022;2023-02-22T13:26:33;5.53;;;2.72;;
28836;SDS011;50669;50.982;11.022;2023-02-22T13:29:16;13.73;;;5.45;;
28836;SDS011;50669;50.982;11.022;2023-02-22T13:39:39;11.57;;;4.97;;
28836;SDS011;50669;50.982;11.022;2023-02-22T13:53:39;7.78;;;4.13;;
28836;SDS011;50669;50.982;11.022;2023-02-22T13:56:14;9.40;;;3.15;;
28836;SDS011;50669;50.982;11.022;2023-02-22T13:58:47;4.20;;;2.55;;
28836;SDS011;50669;50.982;11.022;2023-02-22T14:06:50;6.88;;;2.70;;
28836;SDS011;50669;50.982;11.022;2023-02-22T14:12:55;6.65;;;2.53;;
28836;SDS011;50669;50.982;11.022;2023-02-22T14:17:45;6.40;;;3.38;;
28836;SDS011;50669;50.982;11.022;2023-02-22T14:22:40;11.15;;;5.97;;
28836;SDS011;50669;50.982;11.022;2023-02-22T14:25:28;5.43;;;2.92;;
28836;SDS011;50669;50.982;11.022;2023-02-22T14:28:05;5.60;;;2.90;;
28836;SDS011;50669;50.982;11.022;2023-02-22T14:30:35;7.60;;;3.38;;
28836;SDS011;50669;50.982;11.022;2023-02-22T14:33:03;4.82;;;2.83;;
28836;SDS011;50669;50.982;11.022;2023-02-22T14:36:20;7.90;;;3.78;;
28836;SDS011;50669;50.982;11.022;2023-02-22T14:41:22;5.25;;;2.55;;
28836;SDS011;50669;50.982;11.022;2023-02-22T14:43:54;6.72;;;2.80;;
28836;SDS011;50669;50.982;11.022;2023-02-22T14:46:23;8.43;;;3.28;;
28836;SDS011;50669;50.982;11.022;2023-02-22T14:48:54;16.48;;;4.78;;
28836;SDS011;50669;50.982;11.022;2023-02-22T14:51:30;26.17;;;5.38;;
28836;SDS011;50669;50.982;11.022;2023-02-22T14:54:23;10.13;;;3.42;;
28836;SDS011;50669;50.982;11.022;2023-02-22T14:57:34;9.38;;;3.35;;
28836;SDS011;50669;50.982;11.022;2023-02-22T15:00:11;5.50;;;3.00;;
28836;SDS011;50669;50.982;11.022;2023-02-22T15:02:54;10.77;;;4.60;;
28836;SDS011;50669;50.982;11.022;2023-02-22T15:05:23;6.55;;;3.13;;
28836;SDS011;50669;50.982;11.022;2023-02-22T15:07:58;8.77;;;3.50;;
28836;SDS011;50669;50.982;11.022;2023-02-22T15:13:01;15.73;;;4.20;;
28836;SDS011;50669;50.982;11.022;2023-02-22T15:15:36;7.15;;;2.78;;
28836;SDS011;50669;50.982;11.022;2023-02-22T15:18:22;11.50;;;4.50;;
28836;SDS011;50669;50.982;11.022;2023-02-22T15:21:17;20.07;;;3.93;;
28836;SDS011;50669;50.982;11.022;2023-02-22T15:23:48;11.10;;;3.33;;
28836;SDS011;50669;50.982;11.022;2023-02-22T15:26:18;9.02;;;3.13;;
28836;SDS011;50669;50.982;11.022;2023-02-22T15:28:59;7.95;;;2.80;;
28836;SDS011;50669;50.982;11.022;2023-02-22T15:31:30;3.30;;;2.15;;
28836;SDS011;50669;50.982;11.022;2023-02-22T15:36:56;6.00;;;3.40;;
28836;SDS011;50669;50.982;11.022;2023-02-22T15:39:36;8.55;;;3.83;;
28836;SDS011;50669;50.982;11.022;2023-02-22T15:42:15;18.00;;;4.10;;
28836;SDS011;50669;50.982;11.022;2023-02-22T15:44:48;17.15;;;4.38;;
28836;SDS011;50669;50.982;11.022;2023-02-22T15:47:20;14.50;;;4.40;;
28836;SDS011;50669;50.982;11.022;2023-02-22T15:52:41;20.83;;;4.07;;
28836;SDS011;50669;50.982;11.022;2023-02-22T15:55:17;7.30;;;2.53;;
28836;SDS011;50669;50.982;11.022;2023-02-22T15:57:45;4.47;;;2.50;;
28836;SDS011;50669;50.982;11.022;2023-02-22T16:00:49;5.80;;;2.72;;
28836;SDS011;50669;50.982;11.022;2023-02-22T16:03:09;7.03;;;3.03;;
28836;SDS011;50669;50.982;11.022;2023-02-22T16:08:13;4.95;;;2.47;;
28836;SDS011;50669;50.982;11.022;2023-02-22T16:10:43;10.95;;;3.13;;
28836;SDS011;50669;50.982;11.022;2023-02-22T16:13:37;11.13;;;4.50;;
28836;SDS011;50669;50.982;11.022;2023-02-22T16:18:41;11.52;;;4.35;;
28836;SDS011;50669;50.982;11.022;2023-02-22T16:21:13;5.10;;;2.92;;
28836;SDS011;50669;50.982;11.022;2023-02-22T16:26:26;7.07;;;3.20;;
28836;SDS011;50669;50.982;11.022;2023-02-22T16:28:55;3.80;;;2.17;;
28836;SDS011;50669;50.982;11.022;2023-02-22T16:31:27;12.32;;;3.97;;
28836;SDS011;50669;50.982;11.022;2023-02-22T16:33:57;9.95;;;3.58;;
28836;SDS011;50669;50.982;11.022;2023-02-22T16:36:35;17.25;;;5.03;;
28836;SDS011;50669;50.982;11.022;2023-02-22T16:39:07;17.58;;;5.47;;
28836;SDS011;50669;50.982;11.022;2023-02-22T16:41:46;8.88;;;4.07;;
28836;SDS011;50669;50.982;11.022;2023-02-22T16:44:12;11.85;;;4.75;;
28836;SDS011;50669;50.982;11.022;2023-02-22T16:46:41;9.65;;;3.75;;
28836;SDS011;50669;50.982;11.022;2023-02-22T16:49:10;9.45;;;3.80;;
28836;SDS011;50669;50.982;11.022;2023-02-22T16:52:00;8.75;;;3.17;;
28836;SDS011;50669;50.982;11.022;2023-02-22T16:54:28;7.30;;;3.33;;
28836;SDS011;50669;50.982;11.022;2023-02-22T16:57:01;6.63;;;2.95;;
28836;SDS011;50669;50.982;11.022;2023-02-22T16:59:29;7.68;;;3.40;;
28836;SDS011;50669;50.982;11.022;2023-02-22T17:02:00;10.43;;;3.38;;
28836;SDS011;50669;50.982;11.022;2023-02-22T17:04:31;6.35;;;2.90;;
28836;SDS011;50669;50.982;11.022;2023-02-22T17:06:58;10.73;;;3.97;;
28836;SDS011;50669;50.982;11.022;2023-02-22T17:09:26;10.57;;;4.43;;
28836;SDS011;50669;50.982;11.022;2023-02-22T17:11:52;11.85;;;5.53;;
28836;SDS011;50669;50.982;11.022;2023-02-22T17:14:20;16.60;;;5.65;;
28836;SDS011;50669;50.982;11.022;2023-02-22T17:16:49;13.02;;;4.82;;
28836;SDS011;50669;50.982;11.022;2023-02-22T17:19:18;12.88;;;5.78;;
28836;SDS011;50669;50.982;11.022;2023-02-22T17:21:46;6.93;;;4.20;;
28836;SDS011;50669;50.982;11.022;2023-02-22T17:24:13;16.85;;;5.95;;
28836;SDS011;50669;50.982;11.022;2023-02-22T17:26:41;8.23;;;4.28;;
28836;SDS011;50669;50.982;11.022;2023-02-22T17:29:11;8.65;;;4.93;;
28836;SDS011;50669;50.982;11.022;2023-02-22T17:31:41;14.07;;;5.63;;
28836;SDS011;50669;50.982;11.022;2023-02-22T17:34:07;9.10;;;5.03;;
28836;SDS011;50669;50.982;11.022;2023-02-22T17:36:33;11.18;;;5.35;;
28836;SDS011;50669;50.982;11.022;2023-02-22T17:39:03;9.18;;;5.10;;